Terminal Aerodrome Forecast
Issued by NWS Albany, NY

Home | Current Version | Previous Version | Text Only | Print | Product List | Glossary On
Versions: 1 2 3 4 5 6 7 8 9 10 11 12 13 14 15 16 17 18 19 20 21
000
FTUS41 KALY 131738
TAFGFL
TAF
KGFL 131738Z 1318/1418 27012G22KT P6SM SCT045
     FM140000 26008KT P6SM FEW050 BKN200
     FM140600 22003KT P6SM SCT050 OVC090
     FM141400 29010KT P6SM FEW050=

USA.gov is the U.S. government's official web portal to all federal, state and local government web resources and services.